N931CD KBNA-KJWN
Flight info
| Callsign | N931CD |
|---|---|
| Flight time | 0h 4m |
| Altitude | VFR |
| Route | |
| Aircraft | BE58/L-DOV/C |
Departure
| Time | 2026-05-08 00:40 |
|---|---|
| Airport | Nashville International Airport (KBNA) |
Arrival
| Time | 2026-05-08 00:45 |
|---|---|
| Airport | John C Tune Airport (KJWN) |
| Time | Latitude | Longitude | Altitude | Speed | Heading |
|---|---|---|---|---|---|
| 2026-05-08 00:40 | 36.26157 | -86.81431 | 2457 ft | 151 kts | 14° |
| 2026-05-08 00:40 | 36.27152 | -86.81073 | 2462 ft | 145 kts | 15° |
| 2026-05-08 00:40 | 36.28070 | -86.80766 | 2462 ft | 131 kts | 4° |
| 2026-05-08 00:41 | 36.28868 | -86.81181 | 2458 ft | 131 kts | 309° |
| 2026-05-08 00:41 | 36.29174 | -86.82245 | 2461 ft | 132 kts | 288° |
| 2026-05-08 00:41 | 36.29393 | -86.83352 | 2458 ft | 133 kts | 281° |
| 2026-05-08 00:41 | 36.29207 | -86.84475 | 2466 ft | 136 kts | 249° |
| 2026-05-08 00:42 | 36.28518 | -86.85260 | 2413 ft | 145 kts | 200° |
| 2026-05-08 00:42 | 36.27515 | -86.85611 | 2225 ft | 155 kts | 198° |
| 2026-05-08 00:42 | 36.26497 | -86.85980 | 2015 ft | 147 kts | 197° |
| 2026-05-08 00:42 | 36.25524 | -86.86293 | 1825 ft | 142 kts | 195° |
| 2026-05-08 00:43 | 36.24579 | -86.86605 | 1630 ft | 141 kts | 197° |
| 2026-05-08 00:43 | 36.23644 | -86.86912 | 1437 ft | 139 kts | 195° |
| 2026-05-08 00:43 | 36.22715 | -86.87213 | 1252 ft | 138 kts | 195° |
| 2026-05-08 00:43 | 36.21792 | -86.87513 | 1073 ft | 136 kts | 196° |
| 2026-05-08 00:44 | 36.20876 | -86.87812 | 907 ft | 135 kts | 196° |
| 2026-05-08 00:44 | 36.19985 | -86.88097 | 744 ft | 129 kts | 196° |
| 2026-05-08 00:44 | 36.19163 | -86.88372 | 605 ft | 117 kts | 195° |
| 2026-05-08 00:44 | 36.18413 | -86.88615 | 485 ft | 98 kts | 195° |
| 2026-05-08 00:45 | 36.18024 | -86.88742 | 474 ft | 36 kts | 195° |
| 2026-05-08 00:45 | 36.17928 | -86.88730 | 474 ft | 9 kts | 110° |
| 2026-05-08 00:45 | 36.17911 | -86.88652 | 474 ft | 9 kts | 104° |
| 2026-05-08 00:45 | 36.17887 | -86.88543 | 471 ft | 20 kts | 105° |
| 2026-05-08 00:46 | 36.17806 | -86.88420 | 474 ft | 10 kts | 135° |
| 2026-05-08 00:46 | 36.17831 | -86.88390 | 474 ft | 10 kts | 313° |
| 2026-05-08 00:46 | 36.17894 | -86.88447 | 473 ft | 8 kts | 11° |
| 2026-05-08 00:46 | 36.17960 | -86.88464 | 473 ft | 9 kts | 325° |
| 2026-05-08 00:47 | 36.17978 | -86.88452 | 473 ft | 1 kts | 112° |
| 2026-05-08 00:47 | 36.17975 | -86.88447 | 473 ft | 0 kts | 136° |